Terminal Aerodrome Forecast
Issued by NWS Lake Charles, LA

Home | Current Version | Previous Version | Text Only | Print | Product List | Glossary On
Versions: 1 2 3 4 5 6 7 8 9 10 11 12 13
000
FTUS44 KLCH 182300
TAFBPT
TAF
KBPT 182321Z 1900/1924 03007KT 5SM BR VCSH OVC006
     FM190700 06007KT 3SM RA BR VCTS OVC004CB
     FM191700 01008KT 2SM -RA BR OVC005=

USA.gov is the U.S. government's official web portal to all federal, state and local government web resources and services.